sensor_id;sensor_type;location;lat;lon;timestamp;P1;durP1;ratioP1;P2;durP2;ratioP2
74503;SDS011;62988;55.776;37.544;2023-03-23T00:02:02;4.75;;;2.40;;
74503;SDS011;62988;55.776;37.544;2023-03-23T00:04:27;4.00;;;1.97;;
74503;SDS011;62988;55.776;37.544;2023-03-23T00:06:54;4.35;;;2.20;;
74503;SDS011;62988;55.776;37.544;2023-03-23T00:09:19;3.95;;;1.92;;
74503;SDS011;62988;55.776;37.544;2023-03-23T00:11:48;3.97;;;2.00;;
74503;SDS011;62988;55.776;37.544;2023-03-23T00:14:14;3.80;;;1.98;;
74503;SDS011;62988;55.776;37.544;2023-03-23T00:16:40;3.97;;;1.90;;
74503;SDS011;62988;55.776;37.544;2023-03-23T00:19:10;4.03;;;1.67;;
74503;SDS011;62988;55.776;37.544;2023-03-23T00:21:38;6.38;;;1.90;;
74503;SDS011;62988;55.776;37.544;2023-03-23T00:24:05;4.45;;;1.73;;
74503;SDS011;62988;55.776;37.544;2023-03-23T00:26:32;2.80;;;1.55;;
74503;SDS011;62988;55.776;37.544;2023-03-23T00:28:59;4.28;;;2.05;;
74503;SDS011;62988;55.776;37.544;2023-03-23T00:31:25;4.03;;;1.90;;
74503;SDS011;62988;55.776;37.544;2023-03-23T00:33:56;3.70;;;1.90;;
74503;SDS011;62988;55.776;37.544;2023-03-23T00:36:23;5.90;;;2.30;;
74503;SDS011;62988;55.776;37.544;2023-03-23T00:38:48;7.22;;;2.25;;
74503;SDS011;62988;55.776;37.544;2023-03-23T00:41:14;4.90;;;2.00;;
74503;SDS011;62988;55.776;37.544;2023-03-23T00:43:40;4.18;;;1.85;;
74503;SDS011;62988;55.776;37.544;2023-03-23T00:46:05;5.25;;;2.08;;
74503;SDS011;62988;55.776;37.544;2023-03-23T00:48:35;4.05;;;1.55;;
74503;SDS011;62988;55.776;37.544;2023-03-23T00:51:01;3.45;;;1.73;;
74503;SDS011;62988;55.776;37.544;2023-03-23T00:53:31;7.50;;;2.08;;
74503;SDS011;62988;55.776;37.544;2023-03-23T00:55:57;3.63;;;1.90;;
74503;SDS011;62988;55.776;37.544;2023-03-23T00:58:22;5.83;;;2.10;;
74503;SDS011;62988;55.776;37.544;2023-03-23T01:00:47;3.60;;;1.77;;
74503;SDS011;62988;55.776;37.544;2023-03-23T01:03:13;5.77;;;2.50;;
74503;SDS011;62988;55.776;37.544;2023-03-23T01:05:43;5.13;;;2.13;;
74503;SDS011;62988;55.776;37.544;2023-03-23T01:08:08;5.45;;;1.73;;
74503;SDS011;62988;55.776;37.544;2023-03-23T01:10:35;3.50;;;1.77;;
74503;SDS011;62988;55.776;37.544;2023-03-23T01:13:03;3.83;;;1.98;;
74503;SDS011;62988;55.776;37.544;2023-03-23T01:15:29;4.18;;;2.38;;
74503;SDS011;62988;55.776;37.544;2023-03-23T01:17:55;5.90;;;1.85;;
74503;SDS011;62988;55.776;37.544;2023-03-23T01:20:20;3.50;;;1.65;;
74503;SDS011;62988;55.776;37.544;2023-03-23T01:22:46;5.07;;;2.10;;
74503;SDS011;62988;55.776;37.544;2023-03-23T01:25:12;4.78;;;2.03;;
74503;SDS011;62988;55.776;37.544;2023-03-23T01:27:38;4.30;;;2.35;;
74503;SDS011;62988;55.776;37.544;2023-03-23T01:30:04;4.43;;;2.00;;
74503;SDS011;62988;55.776;37.544;2023-03-23T01:32:29;4.35;;;2.15;;
74503;SDS011;62988;55.776;37.544;2023-03-23T01:34:55;6.22;;;2.33;;
74503;SDS011;62988;55.776;37.544;2023-03-23T01:37:20;5.38;;;2.30;;
74503;SDS011;62988;55.776;37.544;2023-03-23T01:39:51;4.30;;;2.38;;
74503;SDS011;62988;55.776;37.544;2023-03-23T01:42:16;6.28;;;1.77;;
74503;SDS011;62988;55.776;37.544;2023-03-23T01:45:25;4.18;;;2.05;;
74503;SDS011;62988;55.776;37.544;2023-03-23T01:47:30;5.80;;;1.83;;
74503;SDS011;62988;55.776;37.544;2023-03-23T01:49:56;3.65;;;1.90;;
74503;SDS011;62988;55.776;37.544;2023-03-23T01:52:22;4.43;;;2.00;;
74503;SDS011;62988;55.776;37.544;2023-03-23T01:54:49;3.67;;;1.65;;
74503;SDS011;62988;55.776;37.544;2023-03-23T01:57:16;3.55;;;2.05;;
74503;SDS011;62988;55.776;37.544;2023-03-23T01:59:43;5.03;;;1.80;;
74503;SDS011;62988;55.776;37.544;2023-03-23T02:02:10;3.60;;;1.90;;
74503;SDS011;62988;55.776;37.544;2023-03-23T02:04:36;3.65;;;1.60;;
74503;SDS011;62988;55.776;37.544;2023-03-23T02:07:01;4.50;;;2.03;;
74503;SDS011;62988;55.776;37.544;2023-03-23T02:09:27;2.65;;;1.40;;
74503;SDS011;62988;55.776;37.544;2023-03-23T02:11:53;3.42;;;1.80;;
74503;SDS011;62988;55.776;37.544;2023-03-23T02:14:21;4.07;;;1.77;;
74503;SDS011;62988;55.776;37.544;2023-03-23T02:35:35;11.45;;;2.63;;
74503;SDS011;62988;55.776;37.544;2023-03-23T02:38:02;3.92;;;1.42;;
74503;SDS011;62988;55.776;37.544;2023-03-23T02:40:50;4.57;;;2.08;;
74503;SDS011;62988;55.776;37.544;2023-03-23T02:43:18;4.95;;;2.05;;
74503;SDS011;62988;55.776;37.544;2023-03-23T02:45:45;4.72;;;1.75;;
74503;SDS011;62988;55.776;37.544;2023-03-23T02:48:11;4.65;;;2.22;;
74503;SDS011;62988;55.776;37.544;2023-03-23T02:50:38;10.30;;;2.10;;
74503;SDS011;62988;55.776;37.544;2023-03-23T02:53:05;3.70;;;2.10;;
74503;SDS011;62988;55.776;37.544;2023-03-23T02:55:32;5.60;;;2.47;;
74503;SDS011;62988;55.776;37.544;2023-03-23T02:57:59;3.83;;;1.50;;
74503;SDS011;62988;55.776;37.544;2023-03-23T03:00:26;4.85;;;1.95;;
74503;SDS011;62988;55.776;37.544;2023-03-23T03:02:52;5.03;;;2.13;;
74503;SDS011;62988;55.776;37.544;2023-03-23T03:10:43;4.22;;;1.80;;
74503;SDS011;62988;55.776;37.544;2023-03-23T03:13:14;4.78;;;2.05;;
74503;SDS011;62988;55.776;37.544;2023-03-23T03:15:47;7.53;;;1.92;;
74503;SDS011;62988;55.776;37.544;2023-03-23T03:20:47;7.18;;;2.40;;
74503;SDS011;62988;55.776;37.544;2023-03-23T03:23:14;7.70;;;2.10;;
74503;SDS011;62988;55.776;37.544;2023-03-23T03:25:40;11.02;;;2.65;;
74503;SDS011;62988;55.776;37.544;2023-03-23T03:28:12;4.60;;;2.25;;
74503;SDS011;62988;55.776;37.544;2023-03-23T03:30:38;6.88;;;2.50;;
74503;SDS011;62988;55.776;37.544;2023-03-23T03:33:05;7.40;;;2.55;;
74503;SDS011;62988;55.776;37.544;2023-03-23T03:35:31;5.70;;;2.70;;
74503;SDS011;62988;55.776;37.544;2023-03-23T03:38:08;6.53;;;2.35;;
74503;SDS011;62988;55.776;37.544;2023-03-23T03:40:33;12.48;;;2.80;;
74503;SDS011;62988;55.776;37.544;2023-03-23T03:42:59;5.13;;;2.20;;
74503;SDS011;62988;55.776;37.544;2023-03-23T03:45:24;4.10;;;2.30;;
74503;SDS011;62988;55.776;37.544;2023-03-23T03:47:50;5.97;;;2.10;;
74503;SDS011;62988;55.776;37.544;2023-03-23T03:50:15;4.43;;;2.17;;
74503;SDS011;62988;55.776;37.544;2023-03-23T03:52:41;9.38;;;2.28;;
74503;SDS011;62988;55.776;37.544;2023-03-23T03:55:07;4.53;;;2.28;;
74503;SDS011;62988;55.776;37.544;2023-03-23T03:57:33;4.55;;;1.92;;
74503;SDS011;62988;55.776;37.544;2023-03-23T03:59:59;4.85;;;2.22;;
74503;SDS011;62988;55.776;37.544;2023-03-23T04:02:24;3.72;;;2.05;;
74503;SDS011;62988;55.776;37.544;2023-03-23T04:04:50;5.68;;;2.15;;
74503;SDS011;62988;55.776;37.544;2023-03-23T04:07:17;4.90;;;2.70;;
74503;SDS011;62988;55.776;37.544;2023-03-23T04:09:43;7.28;;;2.45;;
74503;SDS011;62988;55.776;37.544;2023-03-23T04:12:11;5.75;;;2.55;;
74503;SDS011;62988;55.776;37.544;2023-03-23T04:14:36;6.47;;;2.60;;
74503;SDS011;62988;55.776;37.544;2023-03-23T04:17:02;4.40;;;2.30;;
74503;SDS011;62988;55.776;37.544;2023-03-23T04:19:27;8.23;;;2.60;;
74503;SDS011;62988;55.776;37.544;2023-03-23T04:21:53;7.68;;;2.47;;
74503;SDS011;62988;55.776;37.544;2023-03-23T04:24:20;9.02;;;3.03;;
74503;SDS011;62988;55.776;37.544;2023-03-23T04:26:46;8.55;;;3.50;;
74503;SDS011;62988;55.776;37.544;2023-03-23T04:29:12;7.03;;;2.97;;
74503;SDS011;62988;55.776;37.544;2023-03-23T04:31:38;5.93;;;2.75;;
74503;SDS011;62988;55.776;37.544;2023-03-23T04:34:04;5.53;;;3.00;;
74503;SDS011;62988;55.776;37.544;2023-03-23T04:36:29;8.00;;;3.35;;
74503;SDS011;62988;55.776;37.544;2023-03-23T04:38:55;7.43;;;2.73;;
74503;SDS011;62988;55.776;37.544;2023-03-23T04:41:23;6.40;;;3.30;;
74503;SDS011;62988;55.776;37.544;2023-03-23T04:43:49;6.45;;;3.30;;
74503;SDS011;62988;55.776;37.544;2023-03-23T04:46:17;6.47;;;2.97;;
74503;SDS011;62988;55.776;37.544;2023-03-23T04:48:43;6.68;;;3.42;;
74503;SDS011;62988;55.776;37.544;2023-03-23T04:51:08;8.57;;;3.40;;
74503;SDS011;62988;55.776;37.544;2023-03-23T04:53:33;11.20;;;4.70;;
74503;SDS011;62988;55.776;37.544;2023-03-23T04:55:59;5.30;;;2.53;;
74503;SDS011;62988;55.776;37.544;2023-03-23T04:58:26;7.25;;;3.50;;
74503;SDS011;62988;55.776;37.544;2023-03-23T05:00:53;10.68;;;3.92;;
74503;SDS011;62988;55.776;37.544;2023-03-23T05:03:18;6.35;;;3.22;;
74503;SDS011;62988;55.776;37.544;2023-03-23T05:05:44;7.35;;;3.83;;
74503;SDS011;62988;55.776;37.544;2023-03-23T05:08:12;8.93;;;3.83;;
74503;SDS011;62988;55.776;37.544;2023-03-23T05:10:37;8.60;;;3.83;;
74503;SDS011;62988;55.776;37.544;2023-03-23T05:13:03;8.45;;;3.83;;
74503;SDS011;62988;55.776;37.544;2023-03-23T05:15:28;10.00;;;4.33;;
74503;SDS011;62988;55.776;37.544;2023-03-23T05:17:53;8.02;;;3.55;;
74503;SDS011;62988;55.776;37.544;2023-03-23T05:20:20;10.68;;;3.88;;
74503;SDS011;62988;55.776;37.544;2023-03-23T05:22:46;9.43;;;4.28;;
74503;SDS011;62988;55.776;37.544;2023-03-23T05:25:16;9.32;;;3.97;;
74503;SDS011;62988;55.776;37.544;2023-03-23T05:27:44;7.47;;;4.03;;
74503;SDS011;62988;55.776;37.544;2023-03-23T05:32:41;8.52;;;4.13;;
74503;SDS011;62988;55.776;37.544;2023-03-23T05:35:06;10.77;;;4.40;;
74503;SDS011;62988;55.776;37.544;2023-03-23T05:37:31;11.73;;;4.40;;
74503;SDS011;62988;55.776;37.544;2023-03-23T05:39:57;10.35;;;3.80;;
74503;SDS011;62988;55.776;37.544;2023-03-23T05:42:23;9.73;;;5.03;;
74503;SDS011;62988;55.776;37.544;2023-03-23T05:44:49;7.63;;;3.95;;
74503;SDS011;62988;55.776;37.544;2023-03-23T05:47:15;10.27;;;4.85;;
74503;SDS011;62988;55.776;37.544;2023-03-23T05:49:41;10.30;;;4.72;;
74503;SDS011;62988;55.776;37.544;2023-03-23T05:52:06;10.40;;;4.97;;
74503;SDS011;62988;55.776;37.544;2023-03-23T05:54:32;10.68;;;4.93;;
74503;SDS011;62988;55.776;37.544;2023-03-23T05:56:59;9.05;;;4.20;;
74503;SDS011;62988;55.776;37.544;2023-03-23T05:59:24;9.33;;;4.50;;
74503;SDS011;62988;55.776;37.544;2023-03-23T06:01:50;15.20;;;4.70;;
74503;SDS011;62988;55.776;37.544;2023-03-23T06:04:16;12.95;;;4.60;;
74503;SDS011;62988;55.776;37.544;2023-03-23T06:06:42;13.70;;;5.53;;
74503;SDS011;62988;55.776;37.544;2023-03-23T06:09:08;8.95;;;4.55;;
74503;SDS011;62988;55.776;37.544;2023-03-23T06:11:34;10.68;;;4.28;;
74503;SDS011;62988;55.776;37.544;2023-03-23T06:14:02;8.93;;;4.38;;
74503;SDS011;62988;55.776;37.544;2023-03-23T06:16:28;11.25;;;4.28;;
74503;SDS011;62988;55.776;37.544;2023-03-23T06:18:53;12.05;;;4.60;;
74503;SDS011;62988;55.776;37.544;2023-03-23T06:21:19;14.98;;;5.25;;
74503;SDS011;62988;55.776;37.544;2023-03-23T06:23:46;11.05;;;5.68;;
74503;SDS011;62988;55.776;37.544;2023-03-23T06:26:13;10.63;;;4.38;;
74503;SDS011;62988;55.776;37.544;2023-03-23T06:28:41;9.15;;;4.80;;
74503;SDS011;62988;55.776;37.544;2023-03-23T06:31:06;17.83;;;5.60;;
74503;SDS011;62988;55.776;37.544;2023-03-23T06:33:36;10.73;;;5.20;;
74503;SDS011;62988;55.776;37.544;2023-03-23T06:36:02;11.43;;;5.55;;
74503;SDS011;62988;55.776;37.544;2023-03-23T06:38:28;14.77;;;5.40;;
74503;SDS011;62988;55.776;37.544;2023-03-23T06:40:54;16.23;;;4.63;;
74503;SDS011;62988;55.776;37.544;2023-03-23T06:43:20;21.95;;;4.80;;
74503;SDS011;62988;55.776;37.544;2023-03-23T06:45:46;11.88;;;4.78;;
74503;SDS011;62988;55.776;37.544;2023-03-23T06:48:11;9.27;;;4.15;;
74503;SDS011;62988;55.776;37.544;2023-03-23T06:50:37;11.65;;;4.97;;
74503;SDS011;62988;55.776;37.544;2023-03-23T06:53:03;10.57;;;4.78;;
74503;SDS011;62988;55.776;37.544;2023-03-23T06:55:28;14.18;;;5.43;;
74503;SDS011;62988;55.776;37.544;2023-03-23T06:57:54;10.75;;;5.13;;
74503;SDS011;62988;55.776;37.544;2023-03-23T07:00:19;9.40;;;5.15;;
74503;SDS011;62988;55.776;37.544;2023-03-23T07:02:45;15.73;;;5.68;;
74503;SDS011;62988;55.776;37.544;2023-03-23T07:05:10;10.23;;;5.10;;
74503;SDS011;62988;55.776;37.544;2023-03-23T07:07:37;10.63;;;4.97;;
74503;SDS011;62988;55.776;37.544;2023-03-23T07:10:03;15.82;;;5.95;;
74503;SDS011;62988;55.776;37.544;2023-03-23T07:12:28;13.32;;;5.63;;
74503;SDS011;62988;55.776;37.544;2023-03-23T07:14:54;21.97;;;5.17;;
74503;SDS011;62988;55.776;37.544;2023-03-23T07:17:19;11.23;;;5.35;;
74503;SDS011;62988;55.776;37.544;2023-03-23T07:19:45;12.25;;;5.70;;
74503;SDS011;62988;55.776;37.544;2023-03-23T07:22:11;8.23;;;4.10;;
74503;SDS011;62988;55.776;37.544;2023-03-23T07:24:37;11.50;;;4.22;;
74503;SDS011;62988;55.776;37.544;2023-03-23T07:27:02;14.00;;;5.53;;
74503;SDS011;62988;55.776;37.544;2023-03-23T07:29:27;14.07;;;5.30;;
74503;SDS011;62988;55.776;37.544;2023-03-23T07:31:53;11.43;;;4.60;;
74503;SDS011;62988;55.776;37.544;2023-03-23T07:34:18;13.60;;;4.45;;
74503;SDS011;62988;55.776;37.544;2023-03-23T07:36:44;8.45;;;4.68;;
74503;SDS011;62988;55.776;37.544;2023-03-23T07:39:09;16.98;;;5.20;;
74503;SDS011;62988;55.776;37.544;2023-03-23T07:41:35;10.00;;;4.70;;
74503;SDS011;62988;55.776;37.544;2023-03-23T07:44:00;9.40;;;4.80;;
74503;SDS011;62988;55.776;37.544;2023-03-23T07:46:26;11.15;;;4.10;;
74503;SDS011;62988;55.776;37.544;2023-03-23T07:48:51;8.40;;;4.05;;
74503;SDS011;62988;55.776;37.544;2023-03-23T07:51:17;10.07;;;4.68;;
74503;SDS011;62988;55.776;37.544;2023-03-23T07:53:43;9.82;;;3.55;;
74503;SDS011;62988;55.776;37.544;2023-03-23T07:56:10;9.52;;;4.43;;
74503;SDS011;62988;55.776;37.544;2023-03-23T07:58:36;10.88;;;4.13;;
74503;SDS011;62988;55.776;37.544;2023-03-23T08:01:02;11.23;;;4.40;;
74503;SDS011;62988;55.776;37.544;2023-03-23T08:03:27;10.45;;;4.30;;
74503;SDS011;62988;55.776;37.544;2023-03-23T08:05:53;6.20;;;3.55;;
74503;SDS011;62988;55.776;37.544;2023-03-23T08:08:18;8.73;;;4.50;;
74503;SDS011;62988;55.776;37.544;2023-03-23T08:10:43;6.97;;;4.03;;
74503;SDS011;62988;55.776;37.544;2023-03-23T08:13:09;9.40;;;4.10;;
74503;SDS011;62988;55.776;37.544;2023-03-23T08:15:35;14.23;;;5.07;;
74503;SDS011;62988;55.776;37.544;2023-03-23T08:18:02;21.42;;;4.80;;
74503;SDS011;62988;55.776;37.544;2023-03-23T08:20:27;8.45;;;3.92;;
74503;SDS011;62988;55.776;37.544;2023-03-23T08:22:53;15.90;;;4.70;;
74503;SDS011;62988;55.776;37.544;2023-03-23T08:25:20;10.23;;;3.80;;
74503;SDS011;62988;55.776;37.544;2023-03-23T08:27:46;20.48;;;4.97;;
74503;SDS011;62988;55.776;37.544;2023-03-23T08:30:12;11.52;;;4.20;;
74503;SDS011;62988;55.776;37.544;2023-03-23T08:32:38;7.70;;;4.45;;
74503;SDS011;62988;55.776;37.544;2023-03-23T08:35:04;12.15;;;4.47;;
74503;SDS011;62988;55.776;37.544;2023-03-23T08:37:30;12.85;;;4.70;;
74503;SDS011;62988;55.776;37.544;2023-03-23T08:39:55;8.13;;;4.15;;
74503;SDS011;62988;55.776;37.544;2023-03-23T08:42:25;11.98;;;5.15;;
74503;SDS011;62988;55.776;37.544;2023-03-23T08:44:51;10.55;;;4.70;;
74503;SDS011;62988;55.776;37.544;2023-03-23T08:47:16;10.25;;;4.10;;
74503;SDS011;62988;55.776;37.544;2023-03-23T08:49:43;8.57;;;4.22;;
74503;SDS011;62988;55.776;37.544;2023-03-23T08:52:08;11.15;;;5.03;;
74503;SDS011;62988;55.776;37.544;2023-03-23T08:54:34;14.30;;;3.97;;
74503;SDS011;62988;55.776;37.544;2023-03-23T08:57:00;14.43;;;4.55;;
74503;SDS011;62988;55.776;37.544;2023-03-23T08:59:25;12.48;;;5.22;;
74503;SDS011;62988;55.776;37.544;2023-03-23T09:01:52;14.75;;;4.10;;
74503;SDS011;62988;55.776;37.544;2023-03-23T09:04:17;16.27;;;5.13;;
74503;SDS011;62988;55.776;37.544;2023-03-23T09:06:43;11.20;;;4.47;;
74503;SDS011;62988;55.776;37.544;2023-03-23T09:09:09;7.55;;;4.15;;
74503;SDS011;62988;55.776;37.544;2023-03-23T09:11:35;6.97;;;4.07;;
74503;SDS011;62988;55.776;37.544;2023-03-23T09:14:05;12.75;;;5.00;;
74503;SDS011;62988;55.776;37.544;2023-03-23T09:16:30;8.25;;;4.20;;
74503;SDS011;62988;55.776;37.544;2023-03-23T09:18:56;14.40;;;4.45;;
74503;SDS011;62988;55.776;37.544;2023-03-23T09:21:23;15.38;;;5.03;;
74503;SDS011;62988;55.776;37.544;2023-03-23T09:23:50;11.40;;;4.15;;
74503;SDS011;62988;55.776;37.544;2023-03-23T09:26:16;8.18;;;4.30;;
74503;SDS011;62988;55.776;37.544;2023-03-23T09:28:42;6.30;;;3.97;;
74503;SDS011;62988;55.776;37.544;2023-03-23T09:31:09;11.48;;;3.97;;
74503;SDS011;62988;55.776;37.544;2023-03-23T09:33:36;7.00;;;4.60;;
74503;SDS011;62988;55.776;37.544;2023-03-23T09:36:01;8.02;;;4.13;;
74503;SDS011;62988;55.776;37.544;2023-03-23T09:38:27;8.93;;;4.22;;
74503;SDS011;62988;55.776;37.544;2023-03-23T09:43:27;6.57;;;3.83;;
74503;SDS011;62988;55.776;37.544;2023-03-23T09:51:02;15.38;;;4.25;;
74503;SDS011;62988;55.776;37.544;2023-03-23T09:53:38;8.82;;;3.88;;
74503;SDS011;62988;55.776;37.544;2023-03-23T09:56:09;6.65;;;3.50;;
74503;SDS011;62988;55.776;37.544;2023-03-23T09:58:43;10.43;;;3.63;;
74503;SDS011;62988;55.776;37.544;2023-03-23T10:03:45;6.47;;;3.40;;
74503;SDS011;62988;55.776;37.544;2023-03-23T10:06:16;10.07;;;3.85;;
74503;SDS011;62988;55.776;37.544;2023-03-23T10:08:47;7.05;;;2.78;;
74503;SDS011;62988;55.776;37.544;2023-03-23T10:16:26;7.55;;;3.60;;
74503;SDS011;62988;55.776;37.544;2023-03-23T10:21:24;8.23;;;3.85;;
74503;SDS011;62988;55.776;37.544;2023-03-23T10:23:55;13.40;;;3.70;;
74503;SDS011;62988;55.776;37.544;2023-03-23T10:26:33;9.15;;;3.80;;
74503;SDS011;62988;55.776;37.544;2023-03-23T10:31:32;11.63;;;3.70;;
74503;SDS011;62988;55.776;37.544;2023-03-23T10:34:02;11.25;;;3.72;;
74503;SDS011;62988;55.776;37.544;2023-03-23T10:41:25;17.05;;;3.65;;
74503;SDS011;62988;55.776;37.544;2023-03-23T10:43:50;6.43;;;3.33;;
74503;SDS011;62988;55.776;37.544;2023-03-23T10:48:54;5.07;;;3.03;;
74503;SDS011;62988;55.776;37.544;2023-03-23T10:51:22;10.07;;;3.90;;
74503;SDS011;62988;55.776;37.544;2023-03-23T10:53:51;7.38;;;3.38;;
74503;SDS011;62988;55.776;37.544;2023-03-23T10:58:52;12.15;;;3.50;;
74503;SDS011;62988;55.776;37.544;2023-03-23T11:01:19;7.80;;;3.03;;
74503;SDS011;62988;55.776;37.544;2023-03-23T11:03:48;7.80;;;3.28;;
74503;SDS011;62988;55.776;37.544;2023-03-23T11:06:27;7.88;;;3.40;;
74503;SDS011;62988;55.776;37.544;2023-03-23T11:11:25;4.63;;;3.10;;
74503;SDS011;62988;55.776;37.544;2023-03-23T11:13:56;8.55;;;3.22;;
74503;SDS011;62988;55.776;37.544;2023-03-23T11:18:50;10.02;;;2.85;;
74503;SDS011;62988;55.776;37.544;2023-03-23T11:21:17;10.13;;;3.53;;
74503;SDS011;62988;55.776;37.544;2023-03-23T11:23:43;6.13;;;3.00;;
74503;SDS011;62988;55.776;37.544;2023-03-23T11:28:51;6.77;;;3.10;;
74503;SDS011;62988;55.776;37.544;2023-03-23T11:31:20;6.47;;;2.85;;
74503;SDS011;62988;55.776;37.544;2023-03-23T11:36:12;9.57;;;2.80;;
74503;SDS011;62988;55.776;37.544;2023-03-23T11:38:38;6.63;;;3.10;;
74503;SDS011;62988;55.776;37.544;2023-03-23T11:41:08;5.95;;;2.53;;
74503;SDS011;62988;55.776;37.544;2023-03-23T11:43:34;5.55;;;2.88;;
74503;SDS011;62988;55.776;37.544;2023-03-23T11:51:21;12.05;;;3.67;;
74503;SDS011;62988;55.776;37.544;2023-03-23T11:58:58;14.13;;;3.47;;
74503;SDS011;62988;55.776;37.544;2023-03-23T12:01:29;6.50;;;2.90;;
74503;SDS011;62988;55.776;37.544;2023-03-23T12:09:12;6.50;;;2.90;;
74503;SDS011;62988;55.776;37.544;2023-03-23T12:25:00;8.38;;;2.97;;
74503;SDS011;62988;55.776;37.544;2023-03-23T12:32:41;8.30;;;2.75;;
74503;SDS011;62988;55.776;37.544;2023-03-23T12:38:06;10.55;;;2.97;;
74503;SDS011;62988;55.776;37.544;2023-03-23T12:48:29;15.55;;;3.08;;
74503;SDS011;62988;55.776;37.544;2023-03-23T12:53:52;10.73;;;3.05;;
74503;SDS011;62988;55.776;37.544;2023-03-23T12:58:45;9.95;;;3.65;;
74503;SDS011;62988;55.776;37.544;2023-03-23T13:01:18;9.30;;;2.70;;
74503;SDS011;62988;55.776;37.544;2023-03-23T13:08:50;9.07;;;2.80;;
74503;SDS011;62988;55.776;37.544;2023-03-23T13:11:19;8.02;;;3.28;;
74503;SDS011;62988;55.776;37.544;2023-03-23T13:13:47;10.57;;;2.85;;
74503;SDS011;62988;55.776;37.544;2023-03-23T13:21:30;12.55;;;3.13;;
74503;SDS011;62988;55.776;37.544;2023-03-23T13:23:58;5.57;;;2.97;;
74503;SDS011;62988;55.776;37.544;2023-03-23T13:26:24;5.65;;;2.80;;
74503;SDS011;62988;55.776;37.544;2023-03-23T13:31:32;6.70;;;3.13;;
74503;SDS011;62988;55.776;37.544;2023-03-23T13:34:02;7.82;;;2.70;;
74503;SDS011;62988;55.776;37.544;2023-03-23T13:36:42;8.02;;;2.80;;
74503;SDS011;62988;55.776;37.544;2023-03-23T13:39:18;7.40;;;3.10;;
74503;SDS011;62988;55.776;37.544;2023-03-23T13:44:38;6.72;;;2.88;;
74503;SDS011;62988;55.776;37.544;2023-03-23T13:47:06;5.88;;;2.90;;
74503;SDS011;62988;55.776;37.544;2023-03-23T13:49:32;12.93;;;2.97;;
74503;SDS011;62988;55.776;37.544;2023-03-23T13:52:15;6.00;;;2.75;;
74503;SDS011;62988;55.776;37.544;2023-03-23T13:54:42;6.78;;;2.65;;
74503;SDS011;62988;55.776;37.544;2023-03-23T13:57:21;13.02;;;4.72;;
74503;SDS011;62988;55.776;37.544;2023-03-23T13:59:49;5.35;;;2.63;;
74503;SDS011;62988;55.776;37.544;2023-03-23T14:02:48;5.40;;;2.85;;
74503;SDS011;62988;55.776;37.544;2023-03-23T14:05:11;8.52;;;2.58;;
74503;SDS011;62988;55.776;37.544;2023-03-23T14:13:50;10.30;;;2.10;;
74503;SDS011;62988;55.776;37.544;2023-03-23T14:15:57;5.88;;;2.75;;
74503;SDS011;62988;55.776;37.544;2023-03-23T14:18:24;7.38;;;2.47;;
74503;SDS011;62988;55.776;37.544;2023-03-23T14:20:51;6.97;;;2.70;;
74503;SDS011;62988;55.776;37.544;2023-03-23T14:23:17;4.03;;;2.38;;
74503;SDS011;62988;55.776;37.544;2023-03-23T14:25:43;9.07;;;2.28;;
74503;SDS011;62988;55.776;37.544;2023-03-23T14:28:21;20.50;;;3.50;;
74503;SDS011;62988;55.776;37.544;2023-03-23T14:30:47;6.22;;;2.58;;
74503;SDS011;62988;55.776;37.544;2023-03-23T14:33:14;7.70;;;2.85;;
74503;SDS011;62988;55.776;37.544;2023-03-23T14:35:40;5.75;;;2.67;;
74503;SDS011;62988;55.776;37.544;2023-03-23T14:38:11;10.15;;;2.80;;
74503;SDS011;62988;55.776;37.544;2023-03-23T14:40:39;8.38;;;3.10;;
74503;SDS011;62988;55.776;37.544;2023-03-23T14:43:04;13.30;;;3.20;;
74503;SDS011;62988;55.776;37.544;2023-03-23T14:45:30;12.40;;;3.45;;
74503;SDS011;62988;55.776;37.544;2023-03-23T14:47:57;9.60;;;3.38;;
74503;SDS011;62988;55.776;37.544;2023-03-23T14:50:28;6.30;;;2.85;;
74503;SDS011;62988;55.776;37.544;2023-03-23T14:52:57;10.30;;;3.17;;
74503;SDS011;62988;55.776;37.544;2023-03-23T14:57:49;6.67;;;3.03;;
74503;SDS011;62988;55.776;37.544;2023-03-23T15:00:15;8.68;;;3.40;;
74503;SDS011;62988;55.776;37.544;2023-03-23T15:02:41;9.73;;;3.22;;
74503;SDS011;62988;55.776;37.544;2023-03-23T15:05:10;12.82;;;3.53;;
74503;SDS011;62988;55.776;37.544;2023-03-23T15:07:37;7.72;;;3.08;;
74503;SDS011;62988;55.776;37.544;2023-03-23T15:10:07;11.65;;;3.53;;
74503;SDS011;62988;55.776;37.544;2023-03-23T15:12:33;11.10;;;3.97;;
74503;SDS011;62988;55.776;37.544;2023-03-23T15:15:03;13.15;;;3.75;;
74503;SDS011;62988;55.776;37.544;2023-03-23T15:17:34;10.98;;;3.08;;
74503;SDS011;62988;55.776;37.544;2023-03-23T15:20:07;7.22;;;3.38;;
74503;SDS011;62988;55.776;37.544;2023-03-23T15:22:33;9.52;;;3.40;;
74503;SDS011;62988;55.776;37.544;2023-03-23T15:25:08;10.40;;;3.70;;
74503;SDS011;62988;55.776;37.544;2023-03-23T15:27:39;7.90;;;2.72;;
74503;SDS011;62988;55.776;37.544;2023-03-23T15:30:31;12.60;;;3.63;;
74503;SDS011;62988;55.776;37.544;2023-03-23T15:33:11;6.25;;;2.70;;
74503;SDS011;62988;55.776;37.544;2023-03-23T15:35:39;5.68;;;2.60;;
74503;SDS011;62988;55.776;37.544;2023-03-23T15:38:14;10.80;;;3.42;;
74503;SDS011;62988;55.776;37.544;2023-03-23T15:40:42;14.95;;;3.35;;
74503;SDS011;62988;55.776;37.544;2023-03-23T15:45:53;9.43;;;3.22;;
74503;SDS011;62988;55.776;37.544;2023-03-23T15:48:20;11.98;;;3.95;;
74503;SDS011;62988;55.776;37.544;2023-03-23T15:50:46;9.87;;;3.53;;
74503;SDS011;62988;55.776;37.544;2023-03-23T15:55:43;8.80;;;3.38;;
74503;SDS011;62988;55.776;37.544;2023-03-23T15:58:09;6.83;;;3.07;;
74503;SDS011;62988;55.776;37.544;2023-03-23T16:00:35;9.10;;;2.38;;
74503;SDS011;62988;55.776;37.544;2023-03-23T16:03:01;10.15;;;2.78;;
74503;SDS011;62988;55.776;37.544;2023-03-23T16:05:28;7.50;;;2.80;;
74503;SDS011;62988;55.776;37.544;2023-03-23T16:07:54;9.30;;;3.47;;
74503;SDS011;62988;55.776;37.544;2023-03-23T16:10:21;10.32;;;3.80;;
74503;SDS011;62988;55.776;37.544;2023-03-23T16:12:47;8.35;;;3.33;;
74503;SDS011;62988;55.776;37.544;2023-03-23T16:15:13;13.48;;;3.58;;
74503;SDS011;62988;55.776;37.544;2023-03-23T16:17:38;5.85;;;3.03;;
74503;SDS011;62988;55.776;37.544;2023-03-23T16:20:18;6.35;;;3.17;;
74503;SDS011;62988;55.776;37.544;2023-03-23T16:22:44;8.05;;;3.38;;
74503;SDS011;62988;55.776;37.544;2023-03-23T16:25:09;8.93;;;3.05;;
74503;SDS011;62988;55.776;37.544;2023-03-23T16:27:36;7.80;;;3.20;;
74503;SDS011;62988;55.776;37.544;2023-03-23T16:30:07;6.60;;;2.67;;
74503;SDS011;62988;55.776;37.544;2023-03-23T16:32:34;7.43;;;3.45;;
74503;SDS011;62988;55.776;37.544;2023-03-23T16:35:00;8.65;;;3.03;;
74503;SDS011;62988;55.776;37.544;2023-03-23T16:37:25;5.38;;;2.45;;
74503;SDS011;62988;55.776;37.544;2023-03-23T16:39:51;12.98;;;3.28;;
74503;SDS011;62988;55.776;37.544;2023-03-23T16:42:16;20.75;;;4.57;;
74503;SDS011;62988;55.776;37.544;2023-03-23T16:44:42;8.70;;;3.13;;
74503;SDS011;62988;55.776;37.544;2023-03-23T16:47:07;12.57;;;3.30;;
74503;SDS011;62988;55.776;37.544;2023-03-23T16:49:32;9.02;;;3.33;;
74503;SDS011;62988;55.776;37.544;2023-03-23T16:51:58;11.10;;;2.90;;
74503;SDS011;62988;55.776;37.544;2023-03-23T16:54:23;9.30;;;2.92;;
74503;SDS011;62988;55.776;37.544;2023-03-23T16:56:49;6.90;;;2.47;;
74503;SDS011;62988;55.776;37.544;2023-03-23T16:59:14;6.85;;;3.13;;
74503;SDS011;62988;55.776;37.544;2023-03-23T17:01:42;11.50;;;3.78;;